createdAt,value
2023-05-16T00:01:17.819Z,98079.31
2023-05-16T00:03:45.068Z,98084.86
2023-05-16T00:06:12.500Z,98090.04
2023-05-16T00:08:39.988Z,98089.83
2023-05-16T00:11:07.156Z,98088.08
2023-05-16T00:13:34.208Z,98085.61
2023-05-16T00:16:02.049Z,98079.20
2023-05-16T00:18:29.705Z,98083.14
2023-05-16T00:20:56.650Z,98081.29
2023-05-16T00:23:23.524Z,98077.63
2023-05-16T00:25:50.524Z,98084.19
2023-05-16T00:28:17.795Z,98085.58
2023-05-16T00:30:44.850Z,98092.65
2023-05-16T00:33:12.032Z,98092.69
2023-05-16T00:35:38.994Z,98096.38
2023-05-16T00:38:06.088Z,98088.06
2023-05-16T00:40:33.238Z,98085.56
2023-05-16T00:43:00.239Z,98091.85
2023-05-16T00:45:28.261Z,98094.79
2023-05-16T00:47:56.544Z,98096.10
2023-05-16T00:50:23.726Z,98095.40
2023-05-16T00:52:50.809Z,98093.14
2023-05-16T00:55:18.013Z,98082.84
2023-05-16T00:57:45.012Z,98079.39
2023-05-16T01:00:15.023Z,98071.09
2023-05-16T01:02:42.615Z,98071.31
2023-05-16T01:05:12.523Z,98076.13
2023-05-16T01:07:39.862Z,98070.02
2023-05-16T01:10:08.960Z,98066.55
2023-05-16T01:12:51.851Z,98069.29
2023-05-16T01:15:32.209Z,98070.95
2023-05-16T01:18:18.649Z,98067.04
2023-05-16T01:20:56.354Z,98067.58
2023-05-16T01:23:32.729Z,98066.56
2023-05-16T01:26:19.649Z,98076.00
2023-05-16T01:28:48.680Z,98068.35
2023-05-16T01:31:16.057Z,98068.88
2023-05-16T01:33:45.039Z,98070.86
2023-05-16T01:36:39.510Z,98064.45
2023-05-16T01:39:15.698Z,98062.55
2023-05-16T01:42:04.132Z,98063.95
2023-05-16T01:44:35.739Z,98069.95
2023-05-16T01:47:09.718Z,98075.46
2023-05-16T01:50:03.546Z,98073.38
2023-05-16T01:52:42.158Z,98068.13
2023-05-16T01:55:36.397Z,98063.14
2023-05-16T01:58:06.945Z,98059.94
2023-05-16T02:00:34.359Z,98060.62
2023-05-16T02:03:02.081Z,98063.48
2023-05-16T02:05:29.421Z,98065.14
2023-05-16T02:07:59.060Z,98071.88
2023-05-16T02:10:26.952Z,98066.20
2023-05-16T02:12:54.009Z,98066.44
2023-05-16T02:15:21.028Z,98070.86
2023-05-16T02:17:49.070Z,98074.63
2023-05-16T02:20:16.511Z,98072.27
2023-05-16T02:22:43.892Z,98062.05
2023-05-16T02:25:10.946Z,98062.69
2023-05-16T02:27:37.897Z,98063.67
2023-05-16T02:30:06.221Z,98063.73
2023-05-16T02:32:33.370Z,98057.95
2023-05-16T02:35:00.391Z,98057.48
2023-05-16T02:37:27.531Z,98060.13
2023-05-16T02:39:54.527Z,98067.05
2023-05-16T02:42:21.510Z,98072.58
2023-05-16T02:44:49.098Z,98076.08
2023-05-16T02:47:16.200Z,98069.23
2023-05-16T02:49:43.720Z,98075.65
2023-05-16T02:52:11.483Z,98075.98
2023-05-16T02:54:38.454Z,98081.86
2023-05-16T02:57:05.547Z,98087.02
2023-05-16T02:59:32.590Z,98085.87
2023-05-16T03:01:59.682Z,98083.52
2023-05-16T03:04:26.954Z,98081.14
2023-05-16T03:06:54.259Z,98081.80
2023-05-16T03:09:21.394Z,98087.51
2023-05-16T03:11:48.374Z,98086.91
2023-05-16T03:14:15.425Z,98082.71
2023-05-16T03:16:43.493Z,98078.90
2023-05-16T03:19:10.625Z,98082.12
2023-05-16T03:21:37.648Z,98079.70
2023-05-16T03:24:07.604Z,98076.37
2023-05-16T03:26:35.455Z,98074.06
2023-05-16T03:29:02.404Z,98073.06
2023-05-16T03:31:31.579Z,98073.33
2023-05-16T03:33:58.994Z,98067.05
2023-05-16T03:36:27.040Z,98064.58
2023-05-16T03:38:54.121Z,98068.79
2023-05-16T03:41:21.772Z,98069.91
2023-05-16T03:43:48.901Z,98073.51
2023-05-16T03:46:15.895Z,98079.25
2023-05-16T03:48:42.909Z,98081.26
2023-05-16T03:51:09.977Z,98083.27
2023-05-16T03:53:37.056Z,98091.20
2023-05-16T03:56:04.250Z,98095.42
2023-05-16T03:58:31.304Z,98095.69
2023-05-16T04:00:58.332Z,98094.23
2023-05-16T04:03:27.991Z,98096.77
2023-05-16T04:05:55.912Z,98101.14
2023-05-16T04:08:23.101Z,98101.23
2023-05-16T04:10:50.098Z,98105.25
2023-05-16T04:13:17.630Z,98107.75
2023-05-16T04:15:44.659Z,98104.67
2023-05-16T04:18:12.988Z,98100.85
2023-05-16T04:20:42.294Z,98095.89
2023-05-16T04:23:11.414Z,98100.06
2023-05-16T04:25:38.771Z,98103.88
2023-05-16T04:28:06.444Z,98104.91
2023-05-16T04:30:33.365Z,98102.98
2023-05-16T04:33:00.935Z,98094.45
2023-05-16T04:35:28.371Z,98095.21
2023-05-16T04:37:56.334Z,98100.16
2023-05-16T04:40:24.793Z,98098.41
2023-05-16T04:42:52.849Z,98094.82
2023-05-16T04:45:20.514Z,98093.58
2023-05-16T04:47:47.618Z,98095.98
2023-05-16T04:50:15.678Z,98096.28
2023-05-16T04:52:42.706Z,98092.80
2023-05-16T04:55:10.525Z,98092.39
2023-05-16T04:57:37.638Z,98093.16
2023-05-16T05:00:11.434Z,98081.74
2023-05-16T05:02:39.122Z,98080.09
2023-05-16T05:05:07.063Z,98079.54
2023-05-16T05:07:34.196Z,98077.48
2023-05-16T05:10:01.487Z,98074.35
2023-05-16T05:12:28.590Z,98074.74
2023-05-16T05:14:55.561Z,98070.41
2023-05-16T05:17:23.171Z,98080.09
2023-05-16T05:19:50.524Z,98085.28
2023-05-16T05:22:17.459Z,98085.81
2023-05-16T05:24:45.848Z,98083.92
2023-05-16T05:27:13.018Z,98082.23
2023-05-16T05:29:40.229Z,98095.96
2023-05-16T05:32:08.196Z,98096.79
2023-05-16T05:34:35.371Z,98090.86
2023-05-16T05:37:02.435Z,98094.26
2023-05-16T05:39:29.496Z,98094.91
2023-05-16T05:41:56.749Z,98090.12
2023-05-16T05:44:23.798Z,98092.42
2023-05-16T05:46:51.116Z,98087.06
2023-05-16T05:49:18.316Z,98073.16
2023-05-16T05:51:45.463Z,98072.88
2023-05-16T05:54:12.835Z,98075.22
2023-05-16T05:56:39.989Z,98077.06
2023-05-16T05:59:07.239Z,98075.18
2023-05-16T06:01:34.451Z,98071.66
2023-05-16T06:04:02.408Z,98070.04
2023-05-16T06:06:29.538Z,98071.52
2023-05-16T06:08:57.101Z,98071.45
2023-05-16T06:11:24.983Z,98074.20
2023-05-16T06:13:52.643Z,98068.80
2023-05-16T06:16:23.487Z,98069.21
2023-05-16T06:18:50.847Z,98068.73
2023-05-16T06:21:17.980Z,98058.56
2023-05-16T06:23:45.153Z,98061.09
2023-05-16T06:26:12.402Z,98061.32
2023-05-16T06:28:39.415Z,98061.60
2023-05-16T06:31:06.686Z,98064.48
2023-05-16T06:33:33.871Z,98066.35
2023-05-16T06:36:01.047Z,98065.81
2023-05-16T06:38:28.377Z,98066.10
2023-05-16T06:40:55.436Z,98069.65
2023-05-16T06:43:23.121Z,98066.39
2023-05-16T06:45:50.672Z,98067.71
2023-05-16T06:48:18.715Z,98063.95
2023-05-16T06:50:51.429Z,98066.36
2023-05-16T06:53:19.104Z,98066.94
2023-05-16T06:55:46.990Z,98064.56
2023-05-16T06:58:14.635Z,98056.60
2023-05-16T07:00:41.790Z,98051.59
2023-05-16T07:03:08.851Z,98046.92
2023-05-16T07:05:36.036Z,98047.35
2023-05-16T07:08:04.644Z,98057.17
2023-05-16T07:10:33.486Z,98058.35
2023-05-16T07:13:01.268Z,98061.89
2023-05-16T07:15:28.721Z,98059.85
2023-05-16T07:17:56.937Z,98063.19
2023-05-16T07:20:24.474Z,98059.85
2023-05-16T07:22:51.528Z,98060.61
2023-05-16T07:25:18.620Z,98056.86
2023-05-16T07:27:45.628Z,98058.14
2023-05-16T07:30:13.688Z,98055.48
2023-05-16T07:32:42.069Z,98050.44
2023-05-16T07:35:09.738Z,98051.10
2023-05-16T07:37:36.829Z,98056.97
2023-05-16T07:40:04.248Z,98051.95
2023-05-16T07:42:31.631Z,98048.08
2023-05-16T07:44:58.616Z,98051.31
2023-05-16T07:47:26.472Z,98048.15
2023-05-16T07:49:53.569Z,98044.23
2023-05-16T07:52:20.703Z,98044.26
2023-05-16T07:54:47.687Z,98046.39
2023-05-16T07:57:15.184Z,98045.94
2023-05-16T07:59:45.957Z,98044.27
2023-05-16T08:02:13.243Z,98040.36
2023-05-16T08:04:40.931Z,98041.14
2023-05-16T08:07:09.038Z,98038.46
2023-05-16T08:09:36.123Z,98041.63
2023-05-16T08:12:03.201Z,98044.92
2023-05-16T08:14:33.526Z,98050.90
2023-05-16T08:17:00.789Z,98054.84
2023-05-16T08:19:28.879Z,98054.34
2023-05-16T08:21:56.084Z,98054.54
2023-05-16T08:24:23.174Z,98058.44
2023-05-16T08:26:50.356Z,98062.30
2023-05-16T08:29:25.059Z,98060.66
2023-05-16T08:31:52.380Z,98062.08
2023-05-16T08:34:19.671Z,98069.39
2023-05-16T08:36:46.960Z,98068.12
2023-05-16T08:39:14.415Z,98069.35
2023-05-16T08:41:41.485Z,98066.04
2023-05-16T08:44:10.667Z,98069.54
2023-05-16T08:46:40.890Z,98067.70
2023-05-16T08:49:09.233Z,98073.14
2023-05-16T08:51:37.931Z,98075.30
2023-05-16T08:54:12.708Z,98071.52
2023-05-16T08:56:41.937Z,98070.44
2023-05-16T08:59:11.319Z,98075.27
2023-05-16T09:01:38.949Z,98080.47
2023-05-16T09:04:07.502Z,98083.33
2023-05-16T09:06:36.009Z,98086.63
2023-05-16T09:09:04.547Z,98092.63
2023-05-16T09:11:32.210Z,98101.07
2023-05-16T09:13:59.320Z,98102.80
2023-05-16T09:16:26.298Z,98102.24
2023-05-16T09:18:56.429Z,98104.41
2023-05-16T09:21:31.499Z,98106.00
2023-05-16T09:24:08.679Z,98107.27
2023-05-16T09:26:38.281Z,98108.34
2023-05-16T09:29:13.159Z,98109.34
2023-05-16T09:31:40.925Z,98112.89
2023-05-16T09:34:10.646Z,98117.91
2023-05-16T09:36:38.376Z,98124.41
2023-05-16T09:39:08.583Z,98132.03
2023-05-16T09:41:36.041Z,98136.51
2023-05-16T09:44:06.651Z,98136.88
2023-05-16T09:46:35.599Z,98131.58
2023-05-16T09:49:02.820Z,98129.21
2023-05-16T09:51:31.069Z,98131.59
2023-05-16T09:53:59.583Z,98131.52
2023-05-16T09:56:26.990Z,98138.90
2023-05-16T09:58:54.066Z,98145.17
2023-05-16T10:01:22.590Z,98144.23
2023-05-16T10:03:50.618Z,98147.77
2023-05-16T10:06:18.641Z,98144.11
2023-05-16T10:08:46.536Z,98151.23
2023-05-16T10:11:14.706Z,98150.49
2023-05-16T10:13:41.849Z,98153.31
2023-05-16T10:16:14.182Z,98151.23
2023-05-16T10:18:42.964Z,98157.18
2023-05-16T10:21:17.850Z,98160.27
2023-05-16T10:23:49.746Z,98161.89
2023-05-16T10:26:17.880Z,98161.52
2023-05-16T10:28:45.390Z,98168.20
2023-05-16T10:31:14.160Z,98168.52
2023-05-16T10:33:41.729Z,98176.76
2023-05-16T10:36:10.422Z,98170.54
2023-05-16T10:38:38.686Z,98171.71
2023-05-16T10:41:07.203Z,98174.91
2023-05-16T10:43:34.337Z,98170.25
2023-05-16T10:46:09.229Z,98163.10
2023-05-16T10:48:40.794Z,98154.54
2023-05-16T10:51:23.162Z,98148.38
2023-05-16T10:53:54.729Z,98149.90
2023-05-16T10:56:23.840Z,98142.11
2023-05-16T10:58:53.914Z,98135.17
2023-05-16T11:01:25.440Z,98131.30
2023-05-16T11:04:02.303Z,98126.50
2023-05-16T11:06:57.851Z,98131.41
2023-05-16T11:09:27.100Z,98128.94
2023-05-16T11:12:05.924Z,98128.20
2023-05-16T11:14:33.303Z,98122.98
2023-05-16T11:17:10.114Z,98112.94
2023-05-16T11:19:58.792Z,98104.97
2023-05-16T11:22:30.135Z,98099.70
2023-05-16T11:25:03.760Z,98093.59
2023-05-16T11:27:33.727Z,98092.27
2023-05-16T11:30:06.630Z,98091.45
2023-05-16T11:32:35.439Z,98100.96
2023-05-16T11:35:04.324Z,98099.09
2023-05-16T11:37:31.429Z,98093.43
2023-05-16T11:40:09.217Z,98094.14
2023-05-16T11:42:41.870Z,98098.74
2023-05-16T11:45:15.607Z,98101.51
2023-05-16T11:47:47.001Z,98095.03
2023-05-16T11:50:19.566Z,98089.57
2023-05-16T11:52:49.770Z,98089.49
2023-05-16T11:55:28.243Z,98088.23
2023-05-16T11:58:01.594Z,98084.33
2023-05-16T12:00:29.030Z,98080.89
2023-05-16T12:03:02.622Z,98077.48
2023-05-16T12:05:31.412Z,98075.83
2023-05-16T12:07:59.332Z,98071.94
2023-05-16T12:10:26.550Z,98067.45
2023-05-16T12:12:55.752Z,98062.70
2023-05-16T12:15:22.886Z,98055.65
2023-05-16T12:17:50.355Z,98056.85
2023-05-16T12:20:18.280Z,98052.10
2023-05-16T12:22:46.340Z,98052.67
2023-05-16T12:25:28.197Z,98052.61
2023-05-16T12:27:57.765Z,98050.36
2023-05-16T12:30:27.276Z,98046.23
2023-05-16T12:33:24.249Z,98043.98
2023-05-16T12:35:52.574Z,98039.05
2023-05-16T12:38:21.089Z,98030.11
2023-05-16T12:40:48.153Z,98031.35
2023-05-16T12:43:24.640Z,98033.77
2023-05-16T12:45:54.306Z,98033.23
2023-05-16T12:48:22.335Z,98034.33
2023-05-16T12:50:50.471Z,98032.68
2023-05-16T12:53:18.586Z,98033.64
2023-05-16T12:55:46.305Z,98032.51
2023-05-16T12:58:13.371Z,98032.52
2023-05-16T13:00:40.634Z,98035.81
2023-05-16T13:03:08.071Z,98036.36
2023-05-16T13:05:35.585Z,98035.33
2023-05-16T13:08:03.595Z,98031.81
2023-05-16T13:10:30.777Z,98024.48
2023-05-16T13:12:59.308Z,98018.24
2023-05-16T13:15:26.839Z,98015.41
2023-05-16T13:17:54.312Z,98007.68
2023-05-16T13:20:21.479Z,98002.68
2023-05-16T13:22:48.653Z,97996.79
2023-05-16T13:25:15.656Z,97991.23
2023-05-16T13:27:42.675Z,97983.04
2023-05-16T13:30:09.919Z,97980.88
2023-05-16T13:32:37.528Z,97977.42
2023-05-16T13:35:05.466Z,97977.14
2023-05-16T13:37:32.878Z,97982.63
2023-05-16T13:40:00.135Z,97987.21
2023-05-16T13:42:27.251Z,97987.21
2023-05-16T13:44:54.250Z,97982.20
2023-05-16T13:47:21.433Z,97973.11
2023-05-16T13:49:48.507Z,97966.97
2023-05-16T13:52:15.931Z,97967.05
2023-05-16T13:54:42.989Z,97965.27
2023-05-16T13:57:10.113Z,97960.42
2023-05-16T14:00:05.747Z,97953.43
2023-05-16T14:02:28.332Z,97958.97
2023-05-16T14:04:55.734Z,97954.59
2023-05-16T14:07:22.929Z,97942.60
2023-05-16T14:09:50.302Z,97936.00
2023-05-16T14:12:17.648Z,97926.48
2023-05-16T14:14:45.307Z,97924.55
2023-05-16T14:17:12.442Z,97917.26
2023-05-16T14:19:39.585Z,97910.85
2023-05-16T14:22:07.770Z,97909.08
2023-05-16T14:24:34.950Z,97902.52
2023-05-16T14:27:02.516Z,97902.97
2023-05-16T14:29:29.628Z,97903.23
2023-05-16T14:31:56.910Z,97897.67
2023-05-16T14:34:24.116Z,97889.59
2023-05-16T14:36:51.423Z,97893.34
2023-05-16T14:39:18.460Z,97890.31
2023-05-16T14:41:45.989Z,97887.02
2023-05-16T14:44:13.057Z,97882.35
2023-05-16T14:46:40.628Z,97877.17
2023-05-16T14:49:08.632Z,97873.78
2023-05-16T14:51:35.906Z,97867.15
2023-05-16T14:54:03.151Z,97870.30
2023-05-16T14:56:31.532Z,97866.16
2023-05-16T14:58:59.085Z,97862.15
2023-05-16T15:01:26.499Z,97862.86
2023-05-16T15:03:55.963Z,97856.67
2023-05-16T15:06:24.119Z,97855.45
2023-05-16T15:08:51.381Z,97857.89
2023-05-16T15:11:18.979Z,97859.45
2023-05-16T15:13:46.128Z,97854.63
2023-05-16T15:16:13.228Z,97850.40
2023-05-16T15:18:41.122Z,97846.92
2023-05-16T15:21:08.557Z,97837.55
2023-05-16T15:23:36.183Z,97838.11
2023-05-16T15:26:03.747Z,97832.34
2023-05-16T15:28:30.853Z,97829.65
2023-05-16T15:30:57.898Z,97828.70
2023-05-16T15:33:25.014Z,97828.79
2023-05-16T15:35:52.582Z,97829.19
2023-05-16T15:38:19.762Z,97830.91
2023-05-16T15:40:47.907Z,97831.34
2023-05-16T15:43:17.567Z,97830.48
2023-05-16T15:45:45.060Z,97831.47
2023-05-16T15:48:12.486Z,97831.85
2023-05-16T15:50:39.899Z,97825.67
2023-05-16T15:53:06.906Z,97821.78
2023-05-16T15:55:34.298Z,97834.64
2023-05-16T15:58:01.759Z,97840.95
2023-05-16T16:00:28.828Z,97835.98
2023-05-16T16:02:55.903Z,97832.06
2023-05-16T16:05:23.156Z,97832.06
2023-05-16T16:07:50.416Z,97829.73
2023-05-16T16:10:17.469Z,97828.09
2023-05-16T16:12:58.022Z,97825.60
2023-05-16T16:15:25.507Z,97826.81
2023-05-16T16:17:52.843Z,97821.29
2023-05-16T16:20:20.311Z,97820.39
2023-05-16T16:22:47.562Z,97814.23
2023-05-16T16:25:14.527Z,97814.57
2023-05-16T16:27:42.288Z,97813.63
2023-05-16T16:30:10.206Z,97809.02
2023-05-16T16:32:37.353Z,97805.00
2023-05-16T16:35:05.231Z,97809.67
2023-05-16T16:37:32.583Z,97810.99
2023-05-16T16:40:00.245Z,97810.32
2023-05-16T16:42:29.834Z,97805.77
2023-05-16T16:44:57.231Z,97802.16
2023-05-16T16:47:24.610Z,97798.41
2023-05-16T16:49:51.589Z,97793.29
2023-05-16T16:52:18.625Z,97792.80
2023-05-16T16:54:45.707Z,97794.30
2023-05-16T16:57:12.753Z,97797.71
2023-05-16T16:59:39.852Z,97797.27
2023-05-16T17:02:07.412Z,97799.58
2023-05-16T17:04:34.617Z,97802.39
2023-05-16T17:07:01.740Z,97807.38
2023-05-16T17:09:28.759Z,97811.41
2023-05-16T17:11:55.930Z,97808.38
2023-05-16T17:14:23.175Z,97815.45
2023-05-16T17:16:50.274Z,97816.02
2023-05-16T17:19:17.543Z,97819.23
2023-05-16T17:21:44.848Z,97825.45
2023-05-16T17:24:12.499Z,97827.24
2023-05-16T17:26:39.774Z,97833.15
2023-05-16T17:29:06.902Z,97835.23
2023-05-16T17:31:34.504Z,97839.90
2023-05-16T17:34:01.464Z,97838.70
2023-05-16T17:36:28.539Z,97840.80
2023-05-16T17:38:55.810Z,97839.27
2023-05-16T17:41:23.064Z,97837.48
2023-05-16T17:43:50.183Z,97839.05
2023-05-16T17:46:17.305Z,97840.18
2023-05-16T17:48:44.455Z,97840.73
2023-05-16T17:51:11.420Z,97844.21
2023-05-16T17:53:38.726Z,97850.64
2023-05-16T17:56:07.042Z,97858.09
2023-05-16T17:58:34.416Z,97861.44
2023-05-16T18:01:04.504Z,97862.30
2023-05-16T18:03:31.563Z,97865.66
2023-05-16T18:05:58.840Z,97869.25
2023-05-16T18:08:25.950Z,97879.80
2023-05-16T18:10:52.961Z,97884.27
2023-05-16T18:13:21.350Z,97887.52
2023-05-16T18:15:48.565Z,97889.15
2023-05-16T18:18:17.003Z,97883.98
2023-05-16T18:20:45.478Z,97882.53
2023-05-16T18:23:12.557Z,97877.57
2023-05-16T18:25:39.569Z,97879.87
2023-05-16T18:28:07.115Z,97881.97
2023-05-16T18:30:35.212Z,97882.03
2023-05-16T18:33:04.316Z,97887.11
2023-05-16T18:35:31.519Z,97892.70
2023-05-16T18:37:58.682Z,97899.64
2023-05-16T18:40:25.795Z,97901.21
2023-05-16T18:42:52.980Z,97902.69
2023-05-16T18:45:21.448Z,97905.31
2023-05-16T18:47:48.612Z,97909.21
2023-05-16T18:50:16.125Z,97910.88
2023-05-16T18:52:43.195Z,97908.50
2023-05-16T18:55:10.451Z,97912.77
2023-05-16T18:57:37.454Z,97913.56
2023-05-16T19:00:06.807Z,97912.89
2023-05-16T19:02:41.365Z,97909.67
2023-05-16T19:05:10.058Z,97913.71
2023-05-16T19:07:37.261Z,97911.17
2023-05-16T19:10:05.074Z,97911.56
2023-05-16T19:12:32.159Z,97916.46
2023-05-16T19:14:59.292Z,97910.27
2023-05-16T19:17:26.368Z,97908.80
2023-05-16T19:19:53.936Z,97911.45
2023-05-16T19:22:21.186Z,97911.71
2023-05-16T19:24:48.302Z,97908.62
2023-05-16T19:27:15.537Z,97910.98
2023-05-16T19:29:42.451Z,97907.38
2023-05-16T19:32:10.236Z,97901.21
2023-05-16T19:34:37.326Z,97898.85
2023-05-16T19:37:04.565Z,97899.11
2023-05-16T19:39:31.744Z,97893.42
2023-05-16T19:42:06.646Z,97889.34
2023-05-16T19:44:34.351Z,97885.33
2023-05-16T19:47:01.813Z,97879.36
2023-05-16T19:49:31.526Z,97873.23
2023-05-16T19:51:58.663Z,97871.34
2023-05-16T19:54:25.764Z,97864.96
2023-05-16T19:56:52.892Z,97860.27
2023-05-16T19:59:21.884Z,97858.85
2023-05-16T20:01:48.956Z,97858.92
2023-05-16T20:04:16.078Z,97866.23
2023-05-16T20:06:43.487Z,97857.43
2023-05-16T20:09:10.736Z,97851.88
2023-05-16T20:11:37.758Z,97848.27
2023-05-16T20:14:04.825Z,97843.38
2023-05-16T20:16:32.083Z,97844.87
2023-05-16T20:18:59.222Z,97850.11
2023-05-16T20:21:26.527Z,97853.80
2023-05-16T20:23:53.639Z,97853.05
2023-05-16T20:26:21.002Z,97850.81
2023-05-16T20:28:48.139Z,97849.96
2023-05-16T20:31:15.331Z,97842.99
2023-05-16T20:33:42.506Z,97834.68
2023-05-16T20:36:09.603Z,97836.64
2023-05-16T20:38:38.532Z,97841.17
2023-05-16T20:41:05.639Z,97834.86
2023-05-16T20:43:32.676Z,97834.36
2023-05-16T20:45:59.793Z,97831.74
2023-05-16T20:48:26.826Z,97827.09
2023-05-16T20:50:54.529Z,97826.44
2023-05-16T20:53:22.581Z,97827.73
2023-05-16T20:55:49.719Z,97818.41
2023-05-16T20:58:16.779Z,97817.95
2023-05-16T21:00:43.747Z,97814.52
2023-05-16T21:03:11.982Z,97813.84
2023-05-16T21:05:39.191Z,97816.70
2023-05-16T21:08:06.548Z,97815.59
2023-05-16T21:10:33.699Z,97819.09
2023-05-16T21:13:00.950Z,97817.69
2023-05-16T21:15:28.343Z,97822.20
2023-05-16T21:17:55.599Z,97820.33
2023-05-16T21:20:22.693Z,97815.40
2023-05-16T21:22:49.763Z,97815.82
2023-05-16T21:25:16.797Z,97812.88
2023-05-16T21:27:44.063Z,97813.02
2023-05-16T21:30:11.886Z,97812.02
2023-05-16T21:32:39.166Z,97809.93
2023-05-16T21:35:06.446Z,97811.58
2023-05-16T21:37:33.542Z,97814.72
2023-05-16T21:40:00.600Z,97818.67
2023-05-16T21:42:27.790Z,97815.58
2023-05-16T21:44:54.796Z,97814.09
2023-05-16T21:47:21.751Z,97810.48
2023-05-16T21:49:49.420Z,97810.64
2023-05-16T21:52:16.544Z,97807.51
2023-05-16T21:54:43.587Z,97810.49
2023-05-16T21:57:10.780Z,97805.77
2023-05-16T21:59:37.964Z,97804.55
2023-05-16T22:02:05.297Z,97805.73
2023-05-16T22:04:33.411Z,97804.45
2023-05-16T22:07:00.451Z,97807.86
2023-05-16T22:09:27.402Z,97805.39
2023-05-16T22:11:54.432Z,97808.45
2023-05-16T22:14:21.458Z,97810.83
2023-05-16T22:16:48.516Z,97810.38
2023-05-16T22:19:15.642Z,97817.27
2023-05-16T22:21:42.872Z,97820.41
2023-05-16T22:24:10.008Z,97822.27
2023-05-16T22:26:37.278Z,97825.45
2023-05-16T22:29:04.422Z,97821.77
2023-05-16T22:31:31.637Z,97820.10
2023-05-16T22:33:58.806Z,97815.95
2023-05-16T22:36:25.826Z,97807.31
2023-05-16T22:38:52.875Z,97810.42
2023-05-16T22:41:20.007Z,97816.80
2023-05-16T22:43:47.166Z,97805.84
2023-05-16T22:46:14.925Z,97805.29
2023-05-16T22:48:42.284Z,97807.27
2023-05-16T22:51:09.302Z,97808.97
2023-05-16T22:53:36.552Z,97812.45
2023-05-16T22:56:03.907Z,97808.55
2023-05-16T22:58:31.048Z,97810.33
2023-05-16T23:00:58.167Z,97811.02
2023-05-16T23:03:26.992Z,97811.77
2023-05-16T23:05:55.347Z,97807.75
2023-05-16T23:08:22.517Z,97808.95
2023-05-16T23:10:49.758Z,97802.66
2023-05-16T23:13:16.849Z,97803.67
2023-05-16T23:15:44.063Z,97808.84
2023-05-16T23:18:11.339Z,97813.31
2023-05-16T23:20:38.477Z,97816.85
2023-05-16T23:23:05.521Z,97822.38
2023-05-16T23:25:32.890Z,97823.73
2023-05-16T23:27:59.901Z,97824.33
2023-05-16T23:30:26.939Z,97824.48
2023-05-16T23:32:54.143Z,97823.25
2023-05-16T23:35:21.376Z,97824.20
2023-05-16T23:37:48.573Z,97832.05
2023-05-16T23:40:15.832Z,97837.66
2023-05-16T23:42:42.925Z,97839.52
2023-05-16T23:45:10.538Z,97839.91
2023-05-16T23:47:37.570Z,97841.16
2023-05-16T23:50:05.773Z,97844.52
2023-05-16T23:52:32.834Z,97843.90
2023-05-16T23:55:00.093Z,97846.30
2023-05-16T23:57:27.333Z,97845.80
2023-05-16T23:59:54.731Z,97849.15
